sensor_id;sensor_type;location;lat;lon;timestamp;temperature;humidity
25554;DHT22;13446;50.926;5.332;2023-09-18T00:01:47;22.20;99.90
25554;DHT22;13446;50.926;5.332;2023-09-18T00:04:13;22.00;99.90
25554;DHT22;13446;50.926;5.332;2023-09-18T00:06:38;22.00;99.90
25554;DHT22;13446;50.926;5.332;2023-09-18T00:09:04;22.20;99.90
25554;DHT22;13446;50.926;5.332;2023-09-18T00:11:32;22.30;99.90
25554;DHT22;13446;50.926;5.332;2023-09-18T00:13:57;22.20;99.90
25554;DHT22;13446;50.926;5.332;2023-09-18T00:16:23;22.10;99.90
25554;DHT22;13446;50.926;5.332;2023-09-18T00:18:50;22.20;99.90
25554;DHT22;13446;50.926;5.332;2023-09-18T00:21:15;22.40;99.90
25554;DHT22;13446;50.926;5.332;2023-09-18T00:23:41;22.40;99.90
25554;DHT22;13446;50.926;5.332;2023-09-18T00:26:07;22.30;99.90
25554;DHT22;13446;50.926;5.332;2023-09-18T00:28:33;22.20;99.90
25554;DHT22;13446;50.926;5.332;2023-09-18T00:30:58;22.20;99.90
25554;DHT22;13446;50.926;5.332;2023-09-18T00:33:24;22.20;99.90
25554;DHT22;13446;50.926;5.332;2023-09-18T00:35:50;22.20;99.90
25554;DHT22;13446;50.926;5.332;2023-09-18T00:38:16;22.10;99.90
25554;DHT22;13446;50.926;5.332;2023-09-18T00:40:42;21.90;99.90
25554;DHT22;13446;50.926;5.332;2023-09-18T00:43:07;21.90;99.90
25554;DHT22;13446;50.926;5.332;2023-09-18T00:45:33;22.00;99.90
25554;DHT22;13446;50.926;5.332;2023-09-18T00:47:59;22.00;99.90
25554;DHT22;13446;50.926;5.332;2023-09-18T00:50:25;22.10;99.90
25554;DHT22;13446;50.926;5.332;2023-09-18T00:52:51;22.00;99.90
25554;DHT22;13446;50.926;5.332;2023-09-18T00:55:17;21.90;99.90
25554;DHT22;13446;50.926;5.332;2023-09-18T00:57:43;22.00;99.90
25554;DHT22;13446;50.926;5.332;2023-09-18T01:00:10;22.00;99.90
25554;DHT22;13446;50.926;5.332;2023-09-18T01:02:36;22.20;99.90
25554;DHT22;13446;50.926;5.332;2023-09-18T01:05:01;22.20;99.90
25554;DHT22;13446;50.926;5.332;2023-09-18T01:07:28;22.20;99.90
25554;DHT22;13446;50.926;5.332;2023-09-18T01:09:54;22.10;99.90
25554;DHT22;13446;50.926;5.332;2023-09-18T01:17:14;22.00;99.90
25554;DHT22;13446;50.926;5.332;2023-09-18T01:19:45;22.00;99.90
25554;DHT22;13446;50.926;5.332;2023-09-18T01:22:15;22.20;99.90
25554;DHT22;13446;50.926;5.332;2023-09-18T01:24:42;22.20;99.90
25554;DHT22;13446;50.926;5.332;2023-09-18T01:27:08;22.10;99.90
25554;DHT22;13446;50.926;5.332;2023-09-18T01:29:35;22.30;99.90
25554;DHT22;13446;50.926;5.332;2023-09-18T01:32:00;22.20;99.90
25554;DHT22;13446;50.926;5.332;2023-09-18T01:34:33;22.40;99.90
25554;DHT22;13446;50.926;5.332;2023-09-18T01:37:01;22.20;99.90
25554;DHT22;13446;50.926;5.332;2023-09-18T01:39:28;22.40;99.90
25554;DHT22;13446;50.926;5.332;2023-09-18T01:42:03;22.50;99.90
25554;DHT22;13446;50.926;5.332;2023-09-18T01:44:30;22.60;99.90
25554;DHT22;13446;50.926;5.332;2023-09-18T01:47:01;22.70;99.90
25554;DHT22;13446;50.926;5.332;2023-09-18T01:49:34;22.60;99.90
25554;DHT22;13446;50.926;5.332;2023-09-18T01:52:00;22.60;99.90
25554;DHT22;13446;50.926;5.332;2023-09-18T01:54:26;22.60;99.90
25554;DHT22;13446;50.926;5.332;2023-09-18T01:56:52;22.50;99.90
25554;DHT22;13446;50.926;5.332;2023-09-18T01:59:18;22.40;99.90
25554;DHT22;13446;50.926;5.332;2023-09-18T02:01:44;22.30;99.90
25554;DHT22;13446;50.926;5.332;2023-09-18T02:04:10;22.50;99.90
25554;DHT22;13446;50.926;5.332;2023-09-18T02:06:35;22.50;99.90
25554;DHT22;13446;50.926;5.332;2023-09-18T02:09:01;22.70;99.90
25554;DHT22;13446;50.926;5.332;2023-09-18T02:11:27;22.80;99.90
25554;DHT22;13446;50.926;5.332;2023-09-18T02:13:53;22.60;99.90
25554;DHT22;13446;50.926;5.332;2023-09-18T02:16:18;22.60;99.90
25554;DHT22;13446;50.926;5.332;2023-09-18T02:18:46;22.60;99.90
25554;DHT22;13446;50.926;5.332;2023-09-18T02:21:18;22.40;99.90
25554;DHT22;13446;50.926;5.332;2023-09-18T02:23:44;22.70;99.90
25554;DHT22;13446;50.926;5.332;2023-09-18T02:26:10;22.70;99.90
25554;DHT22;13446;50.926;5.332;2023-09-18T02:28:36;22.70;99.90
25554;DHT22;13446;50.926;5.332;2023-09-18T02:31:02;22.60;99.90
25554;DHT22;13446;50.926;5.332;2023-09-18T02:33:28;22.30;99.90
25554;DHT22;13446;50.926;5.332;2023-09-18T02:35:53;22.20;99.90
25554;DHT22;13446;50.926;5.332;2023-09-18T02:38:19;22.10;99.90
25554;DHT22;13446;50.926;5.332;2023-09-18T02:40:44;22.10;99.90
25554;DHT22;13446;50.926;5.332;2023-09-18T02:43:10;21.90;99.90
25554;DHT22;13446;50.926;5.332;2023-09-18T02:45:35;21.80;99.90
25554;DHT22;13446;50.926;5.332;2023-09-18T02:48:01;21.80;99.90
25554;DHT22;13446;50.926;5.332;2023-09-18T02:50:26;21.80;99.90
25554;DHT22;13446;50.926;5.332;2023-09-18T02:52:52;21.80;99.90
25554;DHT22;13446;50.926;5.332;2023-09-18T02:55:18;21.70;99.90
25554;DHT22;13446;50.926;5.332;2023-09-18T02:57:43;21.60;99.90
25554;DHT22;13446;50.926;5.332;2023-09-18T03:00:09;21.60;99.90
25554;DHT22;13446;50.926;5.332;2023-09-18T03:02:35;21.50;99.90
25554;DHT22;13446;50.926;5.332;2023-09-18T03:05:00;21.40;99.90
25554;DHT22;13446;50.926;5.332;2023-09-18T03:07:26;21.50;99.90
25554;DHT22;13446;50.926;5.332;2023-09-18T03:09:54;21.40;99.90
25554;DHT22;13446;50.926;5.332;2023-09-18T03:12:20;21.30;99.90
25554;DHT22;13446;50.926;5.332;2023-09-18T03:14:47;21.20;99.90
25554;DHT22;13446;50.926;5.332;2023-09-18T03:17:13;21.10;99.90
25554;DHT22;13446;50.926;5.332;2023-09-18T03:19:38;21.10;99.90
25554;DHT22;13446;50.926;5.332;2023-09-18T03:22:04;21.20;99.90
25554;DHT22;13446;50.926;5.332;2023-09-18T03:24:29;21.20;99.90
25554;DHT22;13446;50.926;5.332;2023-09-18T03:26:55;21.20;99.90
25554;DHT22;13446;50.926;5.332;2023-09-18T03:29:21;21.20;99.90
25554;DHT22;13446;50.926;5.332;2023-09-18T03:31:46;21.20;99.90
25554;DHT22;13446;50.926;5.332;2023-09-18T03:34:12;21.20;99.90
25554;DHT22;13446;50.926;5.332;2023-09-18T03:36:38;21.10;99.90
25554;DHT22;13446;50.926;5.332;2023-09-18T03:39:05;21.20;99.90
25554;DHT22;13446;50.926;5.332;2023-09-18T03:41:30;21.20;99.90
25554;DHT22;13446;50.926;5.332;2023-09-18T03:43:59;21.30;99.90
25554;DHT22;13446;50.926;5.332;2023-09-18T03:46:25;21.20;99.90
25554;DHT22;13446;50.926;5.332;2023-09-18T03:48:51;21.20;99.90
25554;DHT22;13446;50.926;5.332;2023-09-18T03:51:16;21.20;99.90
25554;DHT22;13446;50.926;5.332;2023-09-18T03:53:44;21.40;99.90
25554;DHT22;13446;50.926;5.332;2023-09-18T03:56:09;21.50;99.90
25554;DHT22;13446;50.926;5.332;2023-09-18T03:58:35;21.40;99.90
25554;DHT22;13446;50.926;5.332;2023-09-18T04:01:00;21.30;99.90
25554;DHT22;13446;50.926;5.332;2023-09-18T04:03:26;21.40;99.90
25554;DHT22;13446;50.926;5.332;2023-09-18T04:05:51;21.40;99.90
25554;DHT22;13446;50.926;5.332;2023-09-18T04:08:17;21.40;99.90
25554;DHT22;13446;50.926;5.332;2023-09-18T04:10:43;21.30;99.90
25554;DHT22;13446;50.926;5.332;2023-09-18T04:13:10;21.20;99.90
25554;DHT22;13446;50.926;5.332;2023-09-18T04:15:36;21.20;99.90
25554;DHT22;13446;50.926;5.332;2023-09-18T04:18:04;21.20;99.90
25554;DHT22;13446;50.926;5.332;2023-09-18T04:20:29;21.20;99.90
25554;DHT22;13446;50.926;5.332;2023-09-18T04:25:54;21.30;99.90
25554;DHT22;13446;50.926;5.332;2023-09-18T04:28:20;21.40;99.90
25554;DHT22;13446;50.926;5.332;2023-09-18T04:30:46;21.40;99.90
25554;DHT22;13446;50.926;5.332;2023-09-18T04:33:12;21.30;99.90
25554;DHT22;13446;50.926;5.332;2023-09-18T04:35:38;21.30;99.90
25554;DHT22;13446;50.926;5.332;2023-09-18T04:38:07;21.30;99.90
25554;DHT22;13446;50.926;5.332;2023-09-18T04:40:34;21.40;99.90
25554;DHT22;13446;50.926;5.332;2023-09-18T04:43:00;21.30;99.90
25554;DHT22;13446;50.926;5.332;2023-09-18T04:45:25;21.40;99.90
25554;DHT22;13446;50.926;5.332;2023-09-18T04:47:51;21.30;99.90
25554;DHT22;13446;50.926;5.332;2023-09-18T04:50:17;21.30;99.90
25554;DHT22;13446;50.926;5.332;2023-09-18T04:52:42;21.20;99.90
25554;DHT22;13446;50.926;5.332;2023-09-18T04:55:09;21.10;99.90
25554;DHT22;13446;50.926;5.332;2023-09-18T04:57:35;21.20;99.90
25554;DHT22;13446;50.926;5.332;2023-09-18T05:00:01;21.30;99.90
25554;DHT22;13446;50.926;5.332;2023-09-18T05:02:26;21.20;99.90
25554;DHT22;13446;50.926;5.332;2023-09-18T05:04:52;21.10;99.90
25554;DHT22;13446;50.926;5.332;2023-09-18T05:07:17;21.20;99.90
25554;DHT22;13446;50.926;5.332;2023-09-18T05:09:43;21.10;99.90
25554;DHT22;13446;50.926;5.332;2023-09-18T05:12:08;21.10;99.90
25554;DHT22;13446;50.926;5.332;2023-09-18T05:14:42;21.10;99.90
25554;DHT22;13446;50.926;5.332;2023-09-18T05:17:13;21.00;99.90
25554;DHT22;13446;50.926;5.332;2023-09-18T05:19:39;20.90;99.90
25554;DHT22;13446;50.926;5.332;2023-09-18T05:22:06;20.90;99.90
25554;DHT22;13446;50.926;5.332;2023-09-18T05:24:32;20.80;99.90
25554;DHT22;13446;50.926;5.332;2023-09-18T05:26:57;20.80;99.90
25554;DHT22;13446;50.926;5.332;2023-09-18T05:29:23;20.70;99.90
25554;DHT22;13446;50.926;5.332;2023-09-18T05:31:52;20.70;99.90
25554;DHT22;13446;50.926;5.332;2023-09-18T05:34:18;20.80;99.90
25554;DHT22;13446;50.926;5.332;2023-09-18T05:36:44;20.90;99.90
25554;DHT22;13446;50.926;5.332;2023-09-18T05:39:09;20.70;99.90
25554;DHT22;13446;50.926;5.332;2023-09-18T05:41:41;20.70;99.90
25554;DHT22;13446;50.926;5.332;2023-09-18T05:44:06;20.70;99.90
25554;DHT22;13446;50.926;5.332;2023-09-18T05:46:35;20.70;99.90
25554;DHT22;13446;50.926;5.332;2023-09-18T05:49:02;20.60;99.90
25554;DHT22;13446;50.926;5.332;2023-09-18T05:51:27;20.60;99.90
25554;DHT22;13446;50.926;5.332;2023-09-18T05:53:55;20.70;99.90
25554;DHT22;13446;50.926;5.332;2023-09-18T05:56:21;20.70;99.90
25554;DHT22;13446;50.926;5.332;2023-09-18T05:58:46;20.60;99.90
25554;DHT22;13446;50.926;5.332;2023-09-18T06:01:12;20.80;99.90
25554;DHT22;13446;50.926;5.332;2023-09-18T06:03:38;20.70;99.90
25554;DHT22;13446;50.926;5.332;2023-09-18T06:06:06;20.70;99.90
25554;DHT22;13446;50.926;5.332;2023-09-18T06:08:33;20.70;99.90
25554;DHT22;13446;50.926;5.332;2023-09-18T06:10:58;20.60;99.90
25554;DHT22;13446;50.926;5.332;2023-09-18T06:13:24;20.60;99.90
25554;DHT22;13446;50.926;5.332;2023-09-18T06:15:50;20.70;99.90
25554;DHT22;13446;50.926;5.332;2023-09-18T06:18:18;20.80;99.90
25554;DHT22;13446;50.926;5.332;2023-09-18T06:20:47;20.70;99.90
25554;DHT22;13446;50.926;5.332;2023-09-18T06:23:13;20.80;99.90
25554;DHT22;13446;50.926;5.332;2023-09-18T06:25:39;20.80;99.90
25554;DHT22;13446;50.926;5.332;2023-09-18T06:28:05;20.80;99.90
25554;DHT22;13446;50.926;5.332;2023-09-18T06:30:31;20.90;99.90
25554;DHT22;13446;50.926;5.332;2023-09-18T06:32:58;21.00;99.90
25554;DHT22;13446;50.926;5.332;2023-09-18T06:35:23;21.00;99.90
25554;DHT22;13446;50.926;5.332;2023-09-18T06:37:49;21.00;99.90
25554;DHT22;13446;50.926;5.332;2023-09-18T06:40:14;20.90;99.90
25554;DHT22;13446;50.926;5.332;2023-09-18T06:42:40;21.00;99.90
25554;DHT22;13446;50.926;5.332;2023-09-18T06:45:06;21.00;99.90
25554;DHT22;13446;50.926;5.332;2023-09-18T06:47:32;21.10;99.90
25554;DHT22;13446;50.926;5.332;2023-09-18T06:49:58;21.00;99.90
25554;DHT22;13446;50.926;5.332;2023-09-18T06:52:25;20.90;99.90
25554;DHT22;13446;50.926;5.332;2023-09-18T06:54:52;20.90;99.90
25554;DHT22;13446;50.926;5.332;2023-09-18T06:57:17;21.00;99.90
25554;DHT22;13446;50.926;5.332;2023-09-18T06:59:43;21.10;99.90
25554;DHT22;13446;50.926;5.332;2023-09-18T07:02:12;21.00;99.90
25554;DHT22;13446;50.926;5.332;2023-09-18T07:04:41;21.10;99.90
25554;DHT22;13446;50.926;5.332;2023-09-18T07:07:13;21.10;99.90
25554;DHT22;13446;50.926;5.332;2023-09-18T07:09:40;21.00;99.90
25554;DHT22;13446;50.926;5.332;2023-09-18T07:12:07;21.10;99.90
25554;DHT22;13446;50.926;5.332;2023-09-18T07:14:32;21.10;99.90
25554;DHT22;13446;50.926;5.332;2023-09-18T07:16:58;21.20;99.90
25554;DHT22;13446;50.926;5.332;2023-09-18T07:19:25;21.20;99.90
25554;DHT22;13446;50.926;5.332;2023-09-18T07:21:51;21.30;99.90
25554;DHT22;13446;50.926;5.332;2023-09-18T07:24:17;21.30;99.90
25554;DHT22;13446;50.926;5.332;2023-09-18T07:26:43;21.30;99.90
25554;DHT22;13446;50.926;5.332;2023-09-18T07:29:09;21.30;99.90
25554;DHT22;13446;50.926;5.332;2023-09-18T07:31:34;21.50;99.90
25554;DHT22;13446;50.926;5.332;2023-09-18T07:34:00;21.50;99.90
25554;DHT22;13446;50.926;5.332;2023-09-18T07:36:26;21.60;99.90
25554;DHT22;13446;50.926;5.332;2023-09-18T07:38:51;21.60;99.90
25554;DHT22;13446;50.926;5.332;2023-09-18T07:41:17;21.60;99.90
25554;DHT22;13446;50.926;5.332;2023-09-18T07:43:44;21.70;99.90
25554;DHT22;13446;50.926;5.332;2023-09-18T07:46:10;21.70;99.90
25554;DHT22;13446;50.926;5.332;2023-09-18T07:48:35;21.70;99.90
25554;DHT22;13446;50.926;5.332;2023-09-18T07:51:02;21.60;99.90
25554;DHT22;13446;50.926;5.332;2023-09-18T07:53:28;21.70;99.90
25554;DHT22;13446;50.926;5.332;2023-09-18T07:55:57;21.80;99.90
25554;DHT22;13446;50.926;5.332;2023-09-18T07:58:24;21.80;99.90
25554;DHT22;13446;50.926;5.332;2023-09-18T08:00:56;21.90;99.90
25554;DHT22;13446;50.926;5.332;2023-09-18T08:03:23;22.40;99.90
25554;DHT22;13446;50.926;5.332;2023-09-18T08:05:52;22.80;99.90
25554;DHT22;13446;50.926;5.332;2023-09-18T08:08:19;22.90;99.90
25554;DHT22;13446;50.926;5.332;2023-09-18T08:10:52;23.20;99.90
25554;DHT22;13446;50.926;5.332;2023-09-18T08:13:18;23.70;99.90
25554;DHT22;13446;50.926;5.332;2023-09-18T08:15:45;24.10;99.90
25554;DHT22;13446;50.926;5.332;2023-09-18T08:18:11;24.20;99.90
25554;DHT22;13446;50.926;5.332;2023-09-18T08:20:42;24.20;99.90
25554;DHT22;13446;50.926;5.332;2023-09-18T08:23:08;23.80;99.90
25554;DHT22;13446;50.926;5.332;2023-09-18T08:25:34;23.90;99.90
25554;DHT22;13446;50.926;5.332;2023-09-18T08:27:59;24.20;99.90
25554;DHT22;13446;50.926;5.332;2023-09-18T08:30:26;24.30;99.90
25554;DHT22;13446;50.926;5.332;2023-09-18T08:32:52;24.90;99.90
25554;DHT22;13446;50.926;5.332;2023-09-18T08:35:18;25.30;99.90
25554;DHT22;13446;50.926;5.332;2023-09-18T08:37:45;25.70;99.90
25554;DHT22;13446;50.926;5.332;2023-09-18T08:40:11;25.90;99.90
25554;DHT22;13446;50.926;5.332;2023-09-18T08:42:39;26.30;99.90
25554;DHT22;13446;50.926;5.332;2023-09-18T08:45:07;26.70;99.90
25554;DHT22;13446;50.926;5.332;2023-09-18T08:47:34;27.80;99.90
25554;DHT22;13446;50.926;5.332;2023-09-18T08:50:00;28.40;99.90
25554;DHT22;13446;50.926;5.332;2023-09-18T08:52:26;29.60;99.90
25554;DHT22;13446;50.926;5.332;2023-09-18T08:54:53;30.80;99.90
25554;DHT22;13446;50.926;5.332;2023-09-18T08:57:19;30.80;98.30
25554;DHT22;13446;50.926;5.332;2023-09-18T08:59:45;30.80;97.60
25554;DHT22;13446;50.926;5.332;2023-09-18T09:02:11;30.50;97.50
25554;DHT22;13446;50.926;5.332;2023-09-18T09:04:38;30.70;97.10
25554;DHT22;13446;50.926;5.332;2023-09-18T09:07:04;31.70;95.00
25554;DHT22;13446;50.926;5.332;2023-09-18T09:09:30;31.60;93.40
25554;DHT22;13446;50.926;5.332;2023-09-18T09:11:56;31.80;91.90
25554;DHT22;13446;50.926;5.332;2023-09-18T09:14:22;31.60;92.90
25554;DHT22;13446;50.926;5.332;2023-09-18T09:16:54;32.40;91.20
25554;DHT22;13446;50.926;5.332;2023-09-18T09:19:33;33.90;86.10
25554;DHT22;13446;50.926;5.332;2023-09-18T09:22:01;34.20;80.80
25554;DHT22;13446;50.926;5.332;2023-09-18T09:24:40;33.60;79.30
25554;DHT22;13446;50.926;5.332;2023-09-18T09:27:06;33.80;78.90
25554;DHT22;13446;50.926;5.332;2023-09-18T09:29:33;33.70;79.20
25554;DHT22;13446;50.926;5.332;2023-09-18T09:32:12;34.00;76.00
25554;DHT22;13446;50.926;5.332;2023-09-18T09:34:38;33.30;78.40
25554;DHT22;13446;50.926;5.332;2023-09-18T09:37:03;32.20;82.20
25554;DHT22;13446;50.926;5.332;2023-09-18T09:39:29;31.80;83.50
25554;DHT22;13446;50.926;5.332;2023-09-18T09:41:56;31.10;88.60
25554;DHT22;13446;50.926;5.332;2023-09-18T09:44:24;30.50;90.40
25554;DHT22;13446;50.926;5.332;2023-09-18T09:46:51;30.50;90.80
25554;DHT22;13446;50.926;5.332;2023-09-18T09:49:17;29.60;91.80
25554;DHT22;13446;50.926;5.332;2023-09-18T09:51:45;29.20;93.30
25554;DHT22;13446;50.926;5.332;2023-09-18T09:54:12;28.20;95.70
25554;DHT22;13446;50.926;5.332;2023-09-18T09:56:45;27.70;98.00
25554;DHT22;13446;50.926;5.332;2023-09-18T09:59:12;27.90;99.20
25554;DHT22;13446;50.926;5.332;2023-09-18T10:01:38;28.00;99.90
25554;DHT22;13446;50.926;5.332;2023-09-18T10:04:08;28.00;99.50
25554;DHT22;13446;50.926;5.332;2023-09-18T10:06:41;27.50;99.90
25554;DHT22;13446;50.926;5.332;2023-09-18T10:09:12;27.50;99.90
25554;DHT22;13446;50.926;5.332;2023-09-18T10:11:40;27.40;99.90
25554;DHT22;13446;50.926;5.332;2023-09-18T10:14:10;27.10;99.90
25554;DHT22;13446;50.926;5.332;2023-09-18T10:16:37;26.80;99.90
25554;DHT22;13446;50.926;5.332;2023-09-18T10:21:40;26.20;99.90
25554;DHT22;13446;50.926;5.332;2023-09-18T10:26:44;26.30;99.90
25554;DHT22;13446;50.926;5.332;2023-09-18T10:29:14;26.70;99.90
25554;DHT22;13446;50.926;5.332;2023-09-18T10:31:41;27.60;99.90
25554;DHT22;13446;50.926;5.332;2023-09-18T10:34:10;28.40;99.90
25554;DHT22;13446;50.926;5.332;2023-09-18T10:36:36;28.70;99.90
25554;DHT22;13446;50.926;5.332;2023-09-18T10:39:03;28.80;99.80
25554;DHT22;13446;50.926;5.332;2023-09-18T10:41:33;29.10;99.60
25554;DHT22;13446;50.926;5.332;2023-09-18T10:44:00;29.60;97.90
25554;DHT22;13446;50.926;5.332;2023-09-18T10:46:26;29.10;97.40
25554;DHT22;13446;50.926;5.332;2023-09-18T10:48:52;28.50;98.00
25554;DHT22;13446;50.926;5.332;2023-09-18T10:51:22;28.40;98.90
25554;DHT22;13446;50.926;5.332;2023-09-18T10:53:49;29.00;98.90
25554;DHT22;13446;50.926;5.332;2023-09-18T10:56:21;29.10;97.70
25554;DHT22;13446;50.926;5.332;2023-09-18T10:58:46;29.40;97.00
25554;DHT22;13446;50.926;5.332;2023-09-18T11:01:12;29.10;97.60
25554;DHT22;13446;50.926;5.332;2023-09-18T11:03:38;29.10;97.60
25554;DHT22;13446;50.926;5.332;2023-09-18T11:06:11;30.60;95.60
25554;DHT22;13446;50.926;5.332;2023-09-18T11:08:45;31.30;91.90
25554;DHT22;13446;50.926;5.332;2023-09-18T11:11:12;32.30;89.00
25554;DHT22;13446;50.926;5.332;2023-09-18T11:13:40;32.00;86.60
25554;DHT22;13446;50.926;5.332;2023-09-18T11:16:16;32.00;86.20
25554;DHT22;13446;50.926;5.332;2023-09-18T11:18:42;31.70;82.00
25554;DHT22;13446;50.926;5.332;2023-09-18T11:21:11;30.30;85.50
25554;DHT22;13446;50.926;5.332;2023-09-18T11:23:38;30.00;88.30
25554;DHT22;13446;50.926;5.332;2023-09-18T11:26:04;29.90;90.40
25554;DHT22;13446;50.926;5.332;2023-09-18T11:28:32;30.30;88.90
25554;DHT22;13446;50.926;5.332;2023-09-18T11:30:58;30.00;90.00
25554;DHT22;13446;50.926;5.332;2023-09-18T11:36:05;31.20;85.30
25554;DHT22;13446;50.926;5.332;2023-09-18T11:38:32;30.80;86.20
25554;DHT22;13446;50.926;5.332;2023-09-18T11:41:01;30.00;89.20
25554;DHT22;13446;50.926;5.332;2023-09-18T11:43:44;29.30;90.60
25554;DHT22;13446;50.926;5.332;2023-09-18T11:46:10;29.50;91.60
25554;DHT22;13446;50.926;5.332;2023-09-18T11:48:37;30.40;88.00
25554;DHT22;13446;50.926;5.332;2023-09-18T11:51:06;30.90;84.20
25554;DHT22;13446;50.926;5.332;2023-09-18T11:53:36;31.50;81.40
25554;DHT22;13446;50.926;5.332;2023-09-18T11:56:14;31.90;80.30
25554;DHT22;13446;50.926;5.332;2023-09-18T11:58:49;32.90;75.80
25554;DHT22;13446;50.926;5.332;2023-09-18T12:01:15;33.50;73.10
25554;DHT22;13446;50.926;5.332;2023-09-18T12:03:41;33.30;69.20
25554;DHT22;13446;50.926;5.332;2023-09-18T12:06:07;32.80;70.90
25554;DHT22;13446;50.926;5.332;2023-09-18T12:08:35;33.70;70.00
25554;DHT22;13446;50.926;5.332;2023-09-18T12:11:04;33.80;65.50
25554;DHT22;13446;50.926;5.332;2023-09-18T12:13:30;33.60;67.00
25554;DHT22;13446;50.926;5.332;2023-09-18T12:16:00;33.40;65.60
25554;DHT22;13446;50.926;5.332;2023-09-18T12:18:27;32.90;67.80
25554;DHT22;13446;50.926;5.332;2023-09-18T12:21:13;32.60;69.30
25554;DHT22;13446;50.926;5.332;2023-09-18T12:23:39;32.60;68.90
25554;DHT22;13446;50.926;5.332;2023-09-18T12:26:05;32.60;68.10
25554;DHT22;13446;50.926;5.332;2023-09-18T12:28:35;32.40;69.90
25554;DHT22;13446;50.926;5.332;2023-09-18T12:31:01;32.60;68.90
25554;DHT22;13446;50.926;5.332;2023-09-18T12:33:33;32.00;71.00
25554;DHT22;13446;50.926;5.332;2023-09-18T12:35:59;32.40;71.00
25554;DHT22;13446;50.926;5.332;2023-09-18T12:38:25;32.70;70.30
25554;DHT22;13446;50.926;5.332;2023-09-18T12:40:52;32.20;70.80
25554;DHT22;13446;50.926;5.332;2023-09-18T12:43:18;32.20;71.80
25554;DHT22;13446;50.926;5.332;2023-09-18T12:45:44;32.20;70.60
25554;DHT22;13446;50.926;5.332;2023-09-18T12:48:11;30.80;71.70
25554;DHT22;13446;50.926;5.332;2023-09-18T12:50:37;30.10;75.90
25554;DHT22;13446;50.926;5.332;2023-09-18T12:53:09;30.70;76.00
25554;DHT22;13446;50.926;5.332;2023-09-18T12:55:35;31.40;73.50
25554;DHT22;13446;50.926;5.332;2023-09-18T12:58:01;32.20;68.90
25554;DHT22;13446;50.926;5.332;2023-09-18T13:00:32;32.20;68.20
25554;DHT22;13446;50.926;5.332;2023-09-18T13:02:58;32.70;68.50
25554;DHT22;13446;50.926;5.332;2023-09-18T13:05:23;32.40;67.70
25554;DHT22;13446;50.926;5.332;2023-09-18T13:07:51;32.00;68.40
25554;DHT22;13446;50.926;5.332;2023-09-18T13:10:17;31.20;70.90
25554;DHT22;13446;50.926;5.332;2023-09-18T13:12:45;30.80;72.90
25554;DHT22;13446;50.926;5.332;2023-09-18T13:15:11;30.80;71.80
25554;DHT22;13446;50.926;5.332;2023-09-18T13:17:39;31.10;69.60
25554;DHT22;13446;50.926;5.332;2023-09-18T13:20:08;31.10;71.60
25554;DHT22;13446;50.926;5.332;2023-09-18T13:22:35;31.60;71.00
25554;DHT22;13446;50.926;5.332;2023-09-18T13:25:00;31.30;70.80
25554;DHT22;13446;50.926;5.332;2023-09-18T13:27:26;31.00;71.10
25554;DHT22;13446;50.926;5.332;2023-09-18T13:29:52;30.60;73.20
25554;DHT22;13446;50.926;5.332;2023-09-18T13:32:20;30.80;72.80
25554;DHT22;13446;50.926;5.332;2023-09-18T13:34:45;30.30;74.60
25554;DHT22;13446;50.926;5.332;2023-09-18T13:37:12;29.80;74.40
25554;DHT22;13446;50.926;5.332;2023-09-18T13:39:39;29.10;75.50
25554;DHT22;13446;50.926;5.332;2023-09-18T13:42:04;29.10;79.00
25554;DHT22;13446;50.926;5.332;2023-09-18T13:44:30;29.10;77.80
25554;DHT22;13446;50.926;5.332;2023-09-18T13:46:56;29.10;78.00
25554;DHT22;13446;50.926;5.332;2023-09-18T13:49:21;29.10;76.40
25554;DHT22;13446;50.926;5.332;2023-09-18T13:51:48;28.60;78.20
25554;DHT22;13446;50.926;5.332;2023-09-18T13:54:15;28.10;79.20
25554;DHT22;13446;50.926;5.332;2023-09-18T13:56:41;27.80;81.20
25554;DHT22;13446;50.926;5.332;2023-09-18T13:59:08;27.70;82.80
25554;DHT22;13446;50.926;5.332;2023-09-18T14:01:35;27.40;83.00
25554;DHT22;13446;50.926;5.332;2023-09-18T14:04:01;27.20;83.60
25554;DHT22;13446;50.926;5.332;2023-09-18T14:06:27;27.30;85.00
25554;DHT22;13446;50.926;5.332;2023-09-18T14:08:52;27.40;85.70
25554;DHT22;13446;50.926;5.332;2023-09-18T14:11:18;27.40;85.40
25554;DHT22;13446;50.926;5.332;2023-09-18T14:13:44;27.40;83.10
25554;DHT22;13446;50.926;5.332;2023-09-18T14:16:09;27.30;82.00
25554;DHT22;13446;50.926;5.332;2023-09-18T14:18:36;27.20;81.80
25554;DHT22;13446;50.926;5.332;2023-09-18T14:21:01;26.90;82.00
25554;DHT22;13446;50.926;5.332;2023-09-18T14:23:27;26.90;83.30
25554;DHT22;13446;50.926;5.332;2023-09-18T14:25:52;26.80;85.40
25554;DHT22;13446;50.926;5.332;2023-09-18T14:28:18;26.80;86.70
25554;DHT22;13446;50.926;5.332;2023-09-18T14:30:44;26.70;88.50
25554;DHT22;13446;50.926;5.332;2023-09-18T14:33:09;26.80;88.50
25554;DHT22;13446;50.926;5.332;2023-09-18T14:35:36;26.90;88.80
25554;DHT22;13446;50.926;5.332;2023-09-18T14:38:01;27.00;87.80
25554;DHT22;13446;50.926;5.332;2023-09-18T14:40:29;26.90;87.30
25554;DHT22;13446;50.926;5.332;2023-09-18T14:42:55;26.90;88.20
25554;DHT22;13446;50.926;5.332;2023-09-18T14:45:20;26.70;86.60
25554;DHT22;13446;50.926;5.332;2023-09-18T14:47:46;26.70;87.10
25554;DHT22;13446;50.926;5.332;2023-09-18T14:50:11;26.60;87.60
25554;DHT22;13446;50.926;5.332;2023-09-18T14:52:37;26.60;90.00
25554;DHT22;13446;50.926;5.332;2023-09-18T14:55:03;26.60;90.20
25554;DHT22;13446;50.926;5.332;2023-09-18T14:57:30;26.40;90.40
25554;DHT22;13446;50.926;5.332;2023-09-18T14:59:56;26.30;90.80
25554;DHT22;13446;50.926;5.332;2023-09-18T15:02:21;26.10;91.30
25554;DHT22;13446;50.926;5.332;2023-09-18T15:04:49;26.00;92.10
25554;DHT22;13446;50.926;5.332;2023-09-18T15:07:14;25.90;92.30
25554;DHT22;13446;50.926;5.332;2023-09-18T15:09:40;26.00;92.10
25554;DHT22;13446;50.926;5.332;2023-09-18T15:12:05;26.00;92.10
25554;DHT22;13446;50.926;5.332;2023-09-18T15:14:34;25.90;92.30
25554;DHT22;13446;50.926;5.332;2023-09-18T15:16:59;26.00;92.60
25554;DHT22;13446;50.926;5.332;2023-09-18T15:19:25;26.00;92.30
25554;DHT22;13446;50.926;5.332;2023-09-18T15:21:51;25.90;92.20
25554;DHT22;13446;50.926;5.332;2023-09-18T15:24:18;26.00;92.00
25554;DHT22;13446;50.926;5.332;2023-09-18T15:26:44;25.80;92.20
25554;DHT22;13446;50.926;5.332;2023-09-18T15:29:09;25.90;92.40
25554;DHT22;13446;50.926;5.332;2023-09-18T15:31:35;25.90;92.60
25554;DHT22;13446;50.926;5.332;2023-09-18T15:34:01;25.90;92.50
25554;DHT22;13446;50.926;5.332;2023-09-18T15:36:26;25.90;92.20
25554;DHT22;13446;50.926;5.332;2023-09-18T15:38:52;25.90;92.80
25554;DHT22;13446;50.926;5.332;2023-09-18T15:41:18;25.80;92.10
25554;DHT22;13446;50.926;5.332;2023-09-18T15:43:43;25.80;92.10